createdAt,value
2022-08-11T00:03:16.467Z,99.9
2022-08-11T00:05:23.241Z,99.9
2022-08-11T00:07:27.189Z,99.9
2022-08-11T00:09:31.160Z,99.9
2022-08-11T00:10:34.531Z,99.9
2022-08-11T00:12:38.717Z,99.9
2022-08-11T00:14:42.449Z,99.9
2022-08-11T00:16:46.438Z,99.9
2022-08-11T00:18:53.210Z,99.9
2022-08-11T00:20:57.169Z,99.9
2022-08-11T00:23:01.129Z,99.9
2022-08-11T00:25:05.097Z,99.9
2022-08-11T00:27:09.045Z,99.9
2022-08-11T00:31:16.977Z,99.9
2022-08-11T00:33:44.335Z,99.9
2022-08-11T00:39:35.696Z,99.9
2022-08-11T00:41:39.636Z,99.9
2022-08-11T00:43:43.574Z,99.9
2022-08-11T00:45:47.549Z,99.9
2022-08-11T00:47:54.333Z,99.9
2022-08-11T00:49:58.299Z,99.9
2022-08-11T00:54:06.222Z,99.9
2022-08-11T00:58:14.164Z,99.9
2022-08-11T01:00:18.136Z,99.9
2022-08-11T01:02:29.160Z,99.9
2022-08-11T01:04:28.854Z,99.9
2022-08-11T01:08:56.755Z,99.9
2022-08-11T01:11:00.710Z,99.9
2022-08-11T01:13:04.681Z,99.9
2022-08-11T01:15:11.466Z,99.9
2022-08-11T01:17:15.440Z,99.9
2022-08-11T01:19:19.379Z,99.9
2022-08-11T01:21:23.347Z,99.9
2022-08-11T01:23:27.330Z,99.9
2022-08-11T01:25:31.306Z,99.9
2022-08-11T01:27:35.246Z,99.9
2022-08-11T01:29:42.045Z,99.9
2022-08-11T01:31:45.989Z,99.9
2022-08-11T01:33:49.963Z,99.9
2022-08-11T01:35:53.923Z,99.9
2022-08-11T01:37:57.872Z,99.9
2022-08-11T01:40:01.839Z,99.9
2022-08-11T01:42:05.798Z,99.9
2022-08-11T01:50:24.466Z,99.9
2022-08-11T01:52:31.052Z,99.9
2022-08-11T02:03:54.511Z,99.9
2022-08-11T02:05:58.460Z,99.9
2022-08-11T02:08:02.429Z,99.9
2022-08-11T02:10:06.395Z,99.9
2022-08-11T02:12:13.191Z,99.9
2022-08-11T02:16:21.122Z,99.9
2022-08-11T02:18:25.092Z,99.9
2022-08-11T02:26:43.724Z,99.9
2022-08-11T02:28:47.678Z,99.9
2022-08-11T02:32:55.616Z,99.9
2022-08-11T02:35:00.556Z,99.9
2022-08-11T02:37:03.521Z,99.9
2022-08-11T02:39:07.568Z,99.9
2022-08-11T02:41:14.274Z,99.9
2022-08-11T02:43:18.232Z,99.9
2022-08-11T02:45:22.194Z,99.9
2022-08-11T02:47:27.587Z,99.9
2022-08-11T02:49:30.124Z,99.9
2022-08-11T02:51:34.091Z,99.9
2022-08-11T02:53:38.053Z,99.9
2022-08-11T02:55:56.692Z,99.9
2022-08-11T02:57:48.821Z,99.9
2022-08-11T02:59:54.302Z,99.9
2022-08-11T03:00:57.679Z,99.9
2022-08-11T03:05:05.589Z,99.9
2022-08-11T03:11:20.294Z,99.9
2022-08-11T03:15:28.230Z,99.9
2022-08-11T03:17:32.206Z,99.9
2022-08-11T03:19:36.154Z,99.9
2022-08-11T03:22:01.979Z,99.9
2022-08-11T03:23:46.912Z,99.9
2022-08-11T03:25:50.870Z,99.9
2022-08-11T03:29:58.804Z,99.9
2022-08-11T03:32:02.742Z,99.9
2022-08-11T03:36:10.682Z,99.9
2022-08-11T03:40:21.428Z,99.9
2022-08-11T03:42:25.366Z,99.9
2022-08-11T03:48:37.245Z,99.9
2022-08-11T03:50:41.203Z,99.9
2022-08-11T03:52:47.981Z,99.9
2022-08-11T03:54:51.943Z,99.9
2022-08-11T03:57:59.306Z,99.9
2022-08-11T04:00:03.262Z,99.9
2022-08-11T04:02:07.191Z,99.9
2022-08-11T04:04:11.189Z,99.9
2022-08-11T04:06:17.954Z,99.9
2022-08-11T04:08:21.897Z,99.9
2022-08-11T04:10:25.867Z,99.9
2022-08-11T04:12:47.207Z,99.9
2022-08-11T04:14:33.771Z,99.9
2022-08-11T04:16:37.737Z,99.9
2022-08-11T04:18:41.693Z,99.9
2022-08-11T04:20:48.460Z,99.9
2022-08-11T04:22:52.446Z,99.9
2022-08-11T04:24:56.412Z,99.9
2022-08-11T04:27:01.906Z,99.9
2022-08-11T04:29:04.319Z,99.9
2022-08-11T04:31:08.260Z,99.9
2022-08-11T04:33:12.238Z,99.9
2022-08-11T04:35:18.993Z,99.9
2022-08-11T04:37:22.984Z,99.9
2022-08-11T04:39:26.952Z,99.9
2022-08-11T04:41:31.081Z,99.9
2022-08-11T04:43:34.858Z,99.9
2022-08-11T04:45:38.800Z,99.9
2022-08-11T04:48:01.783Z,99.9
2022-08-11T04:49:49.570Z,99.9
2022-08-11T04:51:53.503Z,99.9
2022-08-11T04:56:21.370Z,99.9
2022-08-11T04:58:29.924Z,99.9
2022-08-11T05:00:29.302Z,99.9
2022-08-11T05:04:40.036Z,99.9
2022-08-11T05:08:47.947Z,99.9
2022-08-11T05:14:59.826Z,99.9
2022-08-11T05:17:06.594Z,99.9
2022-08-11T05:19:10.578Z,99.9
2022-08-11T05:21:14.501Z,99.9
2022-08-11T05:23:18.473Z,99.9
2022-08-11T05:27:26.585Z,99.9
2022-08-11T05:29:30.364Z,99.9
2022-08-11T05:31:37.105Z,99.9
2022-08-11T05:33:41.057Z,99.9
2022-08-11T05:36:00.069Z,99.9
2022-08-11T05:37:48.930Z,99.9
2022-08-11T05:39:52.915Z,99.9
2022-08-11T05:41:56.811Z,99.9
2022-08-11T05:44:19.646Z,99.9
2022-08-11T05:46:11.348Z,99.9
2022-08-11T05:48:11.423Z,99.9
2022-08-11T05:50:15.476Z,99.9
2022-08-11T05:51:21.102Z,99.9
2022-08-11T05:53:22.625Z,99.9
2022-08-11T05:55:26.547Z,99.9
2022-08-11T05:57:49.647Z,99.9
2022-08-11T06:03:57.957Z,99.9
2022-08-11T06:05:48.918Z,99.9
2022-08-11T06:07:52.832Z,99.9
2022-08-11T06:09:56.762Z,99.9
2022-08-11T06:12:00.632Z,99.9
2022-08-11T06:14:07.370Z,99.9
2022-08-11T06:18:15.193Z,99.9
2022-08-11T06:24:26.932Z,99.9
2022-08-11T06:28:37.633Z,99.9
2022-08-11T06:32:45.501Z,99.9
2022-08-11T06:34:49.432Z,99.9
2022-08-11T06:36:53.366Z,99.9
2022-08-11T06:38:57.287Z,99.9
2022-08-11T06:41:01.361Z,99.9
2022-08-11T06:43:08.014Z,99.9
2022-08-11T06:45:11.950Z,99.9
2022-08-11T06:47:15.888Z,99.9
2022-08-11T06:50:23.217Z,99.9
2022-08-11T06:52:35.004Z,99.9
2022-08-11T06:54:31.094Z,99.9
2022-08-11T06:56:37.849Z,99.4
2022-08-11T06:58:41.888Z,95.6
2022-08-11T07:00:45.653Z,77
2022-08-11T07:02:49.576Z,84.2
2022-08-11T07:04:53.431Z,75.9
2022-08-11T07:06:57.311Z,81.8
2022-08-11T07:09:01.186Z,81.8
2022-08-11T07:17:19.426Z,73.7
2022-08-11T07:19:23.263Z,66.8
2022-08-11T07:22:00.457Z,60.2
2022-08-11T07:23:30.872Z,65.4
2022-08-11T07:25:37.515Z,53.3
2022-08-11T07:29:45.083Z,62.3
2022-08-11T07:31:48.879Z,61.1
2022-08-11T07:34:07.326Z,61.2
2022-08-11T07:35:56.387Z,61.3
2022-08-11T07:38:01.723Z,57.9
2022-08-11T07:40:06.766Z,78.9
2022-08-11T07:42:10.492Z,83.9
2022-08-11T07:44:14.409Z,74.3
2022-08-11T07:49:24.997Z,57.6
2022-08-11T07:51:28.717Z,57.9
2022-08-11T07:53:35.311Z,68.5
2022-08-11T07:55:50.174Z,69.3
2022-08-11T07:57:59.441Z,65.8
2022-08-11T08:00:04.003Z,71.4
2022-08-11T08:01:50.162Z,82.7
2022-08-11T08:03:54.439Z,82.1
2022-08-11T08:05:57.514Z,89.7
2022-08-11T08:08:04.101Z,70.4
2022-08-11T08:10:07.788Z,70.6
2022-08-11T08:12:11.461Z,66.3
2022-08-11T08:14:15.140Z,65.3
2022-08-11T08:20:26.159Z,62.9
2022-08-11T08:22:48.589Z,66.7
2022-08-11T08:24:36.343Z,65.1
2022-08-11T08:28:43.631Z,63.8
2022-08-11T08:30:47.290Z,70.7
2022-08-11T08:32:50.960Z,62.4
2022-08-11T08:34:54.575Z,63.3
2022-08-11T08:37:01.098Z,62.9
2022-08-11T08:39:04.738Z,62.9
2022-08-11T08:41:08.356Z,60.9
2022-08-11T08:43:48.772Z,46.3
2022-08-11T08:45:41.396Z,46.8
2022-08-11T08:47:46.266Z,46.8
2022-08-11T08:49:51.519Z,46.6
2022-08-11T08:52:19.428Z,46.3
2022-08-11T08:53:58.736Z,45.9
2022-08-11T08:56:03.837Z,45.7
2022-08-11T08:58:07.382Z,45
2022-08-11T09:00:12.606Z,44.6
2022-08-11T09:02:14.581Z,44.4
2022-08-11T09:04:21.205Z,43.4
2022-08-11T09:06:24.740Z,43
2022-08-11T09:08:28.315Z,42.6
2022-08-11T09:10:31.892Z,42.2
2022-08-11T09:12:38.267Z,40.9
2022-08-11T09:14:39.093Z,40.7
2022-08-11T09:16:42.722Z,40.3
2022-08-11T09:18:49.221Z,39.7
2022-08-11T09:20:52.785Z,39.5
2022-08-11T09:23:24.291Z,39.7
2022-08-11T09:27:03.595Z,39.2
2022-08-11T09:33:17.329Z,37.8
2022-08-11T09:37:54.841Z,37.3
2022-08-11T09:38:27.768Z,37
2022-08-11T09:40:31.375Z,37.1
2022-08-11T09:42:34.965Z,37.2
2022-08-11T09:44:38.560Z,36.8
2022-08-11T09:46:45.056Z,35.5
2022-08-11T09:48:48.657Z,35.1
2022-08-11T09:50:52.231Z,34.6
2022-08-11T09:53:34.715Z,34.7
2022-08-11T09:54:59.426Z,34.6
2022-08-11T10:01:13.121Z,34.8
2022-08-11T10:03:16.673Z,34.6
2022-08-11T10:07:23.843Z,33.2
2022-08-11T10:11:31.051Z,32.9
2022-08-11T10:14:31.090Z,32.4
2022-08-11T10:15:41.553Z,32
2022-08-11T10:20:04.490Z,31.4
2022-08-11T10:21:51.949Z,31
2022-08-11T10:24:00.436Z,30.8
2022-08-11T10:28:28.946Z,30.3
2022-08-11T10:32:12.883Z,29.6
2022-08-11T10:34:16.467Z,29.4
2022-08-11T10:35:19.724Z,29
2022-08-11T10:37:23.333Z,28.7
2022-08-11T10:39:27.078Z,28.6
2022-08-11T10:41:30.519Z,28.8
2022-08-11T10:44:01.352Z,29.1
2022-08-11T10:45:40.610Z,29.4
2022-08-11T10:47:46.725Z,29.7
2022-08-11T10:49:47.837Z,29.7
2022-08-11T10:51:52.137Z,29.5
2022-08-11T10:53:55.013Z,29.4
2022-08-11T10:55:58.985Z,29.2
2022-08-11T10:58:05.630Z,28.6
2022-08-11T11:00:08.701Z,28.4
2022-08-11T11:02:12.280Z,28.1
2022-08-11T11:04:15.882Z,27.8
2022-08-11T11:06:28.237Z,27.5
2022-08-11T11:08:23.060Z,27.5
2022-08-11T11:10:26.615Z,27.2
2022-08-11T11:12:33.142Z,27.3
2022-08-11T11:14:36.695Z,27.2
2022-08-11T11:16:40.259Z,27.2
2022-08-11T11:20:47.971Z,27.1
2022-08-11T11:22:50.983Z,27
2022-08-11T11:24:54.550Z,26.9
2022-08-11T11:27:01.031Z,26.6
2022-08-11T11:29:04.559Z,26.5
2022-08-11T11:31:08.114Z,26.5
2022-08-11T11:36:18.466Z,26.5
2022-08-11T11:40:30.614Z,26.4
2022-08-11T11:42:32.055Z,26.2
2022-08-11T11:50:46.244Z,25.7
2022-08-11T11:52:49.789Z,25.6
2022-08-11T11:54:56.228Z,25.1
2022-08-11T11:56:59.789Z,24.9
2022-08-11T12:01:06.869Z,24.2
2022-08-11T12:07:17.482Z,24.1
2022-08-11T12:09:24.360Z,24.5
2022-08-11T12:11:27.489Z,24.7
2022-08-11T12:13:30.987Z,24.6
2022-08-11T12:19:48.359Z,24.3
2022-08-11T12:21:45.128Z,24
2022-08-11T12:23:51.577Z,23.7
2022-08-11T12:26:16.282Z,23.6
2022-08-11T12:30:22.357Z,23.2
2022-08-11T12:32:25.852Z,22.9
2022-08-11T12:36:35.821Z,22.2
2022-08-11T12:42:46.392Z,22.3
2022-08-11T12:44:49.908Z,22.3
2022-08-11T12:46:53.450Z,22.5
2022-08-11T12:51:03.425Z,22.6
2022-08-11T12:55:13.538Z,22.7
2022-08-11T13:01:21.121Z,22.2
2022-08-11T13:05:31.093Z,21.5
2022-08-11T13:07:51.063Z,21.3
2022-08-11T13:11:56.744Z,21.2
2022-08-11T13:13:54.541Z,21.2
2022-08-11T13:15:48.843Z,21.3
2022-08-11T13:17:52.384Z,21.5
2022-08-11T13:19:58.867Z,21.7
2022-08-11T13:22:02.435Z,21.6
2022-08-11T13:24:05.978Z,21.5
2022-08-11T13:31:19.895Z,20.4
2022-08-11T13:33:26.400Z,20
2022-08-11T13:35:29.939Z,19.8
2022-08-11T13:38:18.593Z,19.6
2022-08-11T13:39:37.129Z,19.4
2022-08-11T13:41:40.642Z,19.4
2022-08-11T13:43:44.209Z,19.3
2022-08-11T13:45:47.752Z,19.5
2022-08-11T13:47:54.210Z,20.1
2022-08-11T13:49:57.771Z,20.5
2022-08-11T13:52:01.336Z,20.8
2022-08-11T13:54:04.899Z,21.1
2022-08-11T13:56:08.459Z,21.3
2022-08-11T13:58:19.457Z,21.4
2022-08-11T14:00:25.555Z,21.5
2022-08-11T14:02:29.270Z,21.5
2022-08-11T14:04:30.017Z,21.4
2022-08-11T14:08:38.439Z,21.3
2022-08-11T14:12:39.912Z,21.5
2022-08-11T14:14:43.490Z,21.7
2022-08-11T14:16:49.994Z,22.3
2022-08-11T14:20:57.162Z,22.8
2022-08-11T14:22:03.805Z,23.1
2022-08-11T14:24:03.986Z,23.3
2022-08-11T14:28:30.144Z,23.5
2022-08-11T14:32:21.279Z,23.4
2022-08-11T14:38:32.074Z,23.3
2022-08-11T14:40:35.689Z,23.2
2022-08-11T14:42:39.467Z,23.2
2022-08-11T14:44:45.807Z,23.1
2022-08-11T14:46:49.400Z,23.1
2022-08-11T14:48:53.002Z,23.1
2022-08-11T14:50:56.618Z,23.1
2022-08-11T14:53:01.746Z,23.1
2022-08-11T14:55:05.301Z,23
2022-08-11T14:57:08.910Z,23.1
2022-08-11T14:59:16.066Z,23.3
2022-08-11T15:01:19.750Z,23.4
2022-08-11T15:03:27.973Z,23.7
2022-08-11T15:05:26.926Z,24
2022-08-11T15:07:30.563Z,24.2
2022-08-11T15:09:36.252Z,24.3
2022-08-11T15:11:37.787Z,24.4
2022-08-11T15:13:44.307Z,24.2
2022-08-11T15:15:47.923Z,24.2
2022-08-11T15:17:51.541Z,24.2
2022-08-11T15:18:54.886Z,24.2
2022-08-11T15:25:05.740Z,24.6
2022-08-11T15:29:17.136Z,24.9
2022-08-11T15:31:19.457Z,24.9
2022-08-11T15:33:23.130Z,25
2022-08-11T15:35:26.748Z,24.9
2022-08-11T15:37:30.445Z,24.9
2022-08-11T15:39:34.086Z,24.9
2022-08-11T15:41:40.583Z,24.8
2022-08-11T15:43:44.214Z,24.8
2022-08-11T15:45:47.857Z,24.6
2022-08-11T15:50:11.057Z,24.5
2022-08-11T15:52:01.958Z,24.5
2022-08-11T16:00:16.340Z,24.6
2022-08-11T16:04:23.682Z,24.7
2022-08-11T16:06:27.334Z,24.9
2022-08-11T16:14:44.938Z,26
2022-08-11T16:17:14.391Z,26.1
2022-08-11T16:19:18.088Z,26.1
2022-08-11T16:21:33.699Z,26.1
2022-08-11T16:23:28.383Z,26.1
2022-08-11T16:27:05.620Z,26
2022-08-11T16:27:35.926Z,26
2022-08-11T16:33:49.766Z,25.9
2022-08-11T16:37:57.124Z,26
2022-08-11T16:40:00.822Z,26
2022-08-11T16:42:04.534Z,26.2
2022-08-11T16:48:35.805Z,26.3
2022-08-11T16:52:27.019Z,26.3
2022-08-11T16:56:34.449Z,26.3
2022-08-11T17:00:41.887Z,26.2
2022-08-11T17:02:45.598Z,26.2
2022-08-11T17:04:49.322Z,26.2
2022-08-11T17:06:55.935Z,26.2
2022-08-11T17:08:59.650Z,26.3
2022-08-11T17:11:04.358Z,26.5
2022-08-11T17:12:06.698Z,26.6
2022-08-11T17:14:10.440Z,26.8
2022-08-11T17:16:14.148Z,26.9
2022-08-11T17:18:17.896Z,27
2022-08-11T17:20:39.491Z,27.2
2022-08-11T17:22:28.211Z,27.3
2022-08-11T17:24:31.959Z,27.5
2022-08-11T17:26:35.680Z,27.6
2022-08-11T17:28:39.446Z,27.8
2022-08-11T17:30:43.174Z,27.9
2022-08-11T17:32:55.684Z,28.1
2022-08-11T17:34:53.533Z,28.1
2022-08-11T17:36:57.303Z,28.1
2022-08-11T17:39:01.058Z,28.1
2022-08-11T17:41:04.779Z,28
2022-08-11T17:43:08.541Z,27.8
2022-08-11T17:45:12.306Z,27.7
2022-08-11T17:47:16.044Z,27.7
2022-08-11T17:49:22.689Z,27.6
2022-08-11T17:51:26.437Z,27.6
2022-08-11T17:53:30.204Z,27.8
2022-08-11T17:55:52.550Z,27.7
2022-08-11T17:57:37.835Z,27.5
2022-08-11T17:59:43.767Z,27.5
2022-08-11T18:01:45.309Z,27.5
2022-08-11T18:03:56.300Z,27.9
2022-08-11T18:05:55.623Z,28.3
2022-08-11T18:07:59.395Z,28.9
2022-08-11T18:11:06.494Z,29.8
2022-08-11T18:13:10.236Z,30.1
2022-08-11T18:15:13.989Z,30.3
2022-08-11T18:17:20.631Z,30.6
2022-08-11T18:19:24.395Z,30.8
2022-08-11T18:21:28.161Z,31
2022-08-11T18:23:46.051Z,31.1
2022-08-11T18:25:35.716Z,31.3
2022-08-11T18:27:39.744Z,31.4
2022-08-11T18:29:43.280Z,31.7
2022-08-11T18:31:49.944Z,32.2
2022-08-11T18:34:06.407Z,32.4
2022-08-11T18:35:57.536Z,32.6
2022-08-11T18:38:01.330Z,32.9
2022-08-11T18:40:05.130Z,33.1
2022-08-11T18:46:19.412Z,34
2022-08-11T18:50:39.496Z,34.5
2022-08-11T18:52:30.835Z,34.7
2022-08-11T18:56:38.467Z,35.1
2022-08-11T19:04:56.622Z,35.9
2022-08-11T19:06:31.868Z,36.1
2022-08-11T19:08:03.829Z,36.3
2022-08-11T19:10:07.657Z,36.5
2022-08-11T19:12:11.496Z,36.7
2022-08-11T19:14:18.203Z,37.2
2022-08-11T19:16:22.020Z,37.5
2022-08-11T19:18:25.870Z,37.7
2022-08-11T19:20:29.714Z,37.9
2022-08-11T19:22:33.640Z,38.2
2022-08-11T19:24:37.416Z,38.4
2022-08-11T19:26:41.272Z,38.7
2022-08-11T19:28:47.960Z,39
2022-08-11T19:30:51.822Z,39.3
2022-08-11T19:32:55.703Z,39.5
2022-08-11T19:34:59.547Z,39.8
2022-08-11T19:37:03.430Z,40
2022-08-11T19:39:07.297Z,40.2
2022-08-11T19:41:11.161Z,40.4
2022-08-11T19:43:23.875Z,41
2022-08-11T19:45:21.729Z,41.2
2022-08-11T19:47:25.634Z,41.5
2022-08-11T19:49:29.472Z,41.9
2022-08-11T19:51:33.362Z,42.2
2022-08-11T19:53:37.213Z,42.5
2022-08-11T19:55:41.085Z,42.8
2022-08-11T19:57:47.837Z,43.2
2022-08-11T20:04:25.186Z,44.2
2022-08-11T20:06:29.054Z,44.5
2022-08-11T20:18:55.188Z,48.1
2022-08-11T20:20:59.051Z,49.7
2022-08-11T20:23:02.909Z,52.1
2022-08-11T20:25:09.660Z,56.3
2022-08-11T20:27:18.763Z,57.1
2022-08-11T20:33:25.191Z,63
2022-08-11T20:35:29.087Z,67.3
2022-08-11T20:37:32.987Z,74.5
2022-08-11T20:39:39.792Z,82.8
2022-08-11T20:45:55.197Z,93.1
2022-08-11T20:50:00.684Z,97.5
2022-08-11T20:52:06.150Z,98.1
2022-08-11T20:56:15.203Z,99.4
2022-08-11T20:58:21.923Z,99.6
2022-08-11T20:59:23.212Z,99.9
2022-08-11T21:01:38.984Z,99.9
2022-08-11T21:03:36.397Z,99.9
2022-08-11T21:06:08.139Z,99.9
2022-08-11T21:10:00.848Z,99.9
2022-08-11T21:11:48.734Z,99.9
2022-08-11T21:13:52.635Z,99.9
2022-08-11T21:16:01.648Z,99.9
2022-08-11T21:18:06.327Z,99.9
2022-08-11T21:20:08.006Z,99.9
2022-08-11T21:22:11.125Z,99.9
2022-08-11T21:24:15.611Z,99.9
2022-08-11T21:26:18.953Z,99.9
2022-08-11T21:28:22.913Z,99.9
2022-08-11T21:30:26.819Z,99.9
2022-08-11T21:32:30.795Z,99.9
2022-08-11T21:34:34.625Z,99.9
2022-08-11T21:36:41.411Z,99.9
2022-08-11T21:38:45.339Z,99.9
2022-08-11T21:44:57.086Z,99.9
2022-08-11T21:47:01.016Z,99.9
2022-08-11T21:49:04.950Z,99.9
2022-08-11T21:51:11.716Z,99.9
2022-08-11T21:53:15.653Z,99.9
2022-08-11T21:55:19.599Z,99.9
2022-08-11T21:58:26.878Z,99.9
2022-08-11T22:06:45.444Z,99.9
2022-08-11T22:08:49.384Z,99.9
2022-08-11T22:10:53.314Z,99.9
2022-08-11T22:12:57.279Z,99.9
2022-08-11T22:15:01.174Z,99.9
2022-08-11T22:17:05.156Z,99.9
2022-08-11T22:19:11.908Z,99.9
2022-08-11T22:21:15.949Z,99.9
2022-08-11T22:23:19.778Z,99.9
2022-08-11T22:25:23.716Z,99.9
2022-08-11T22:27:27.682Z,99.9
2022-08-11T22:29:38.296Z,99.9
2022-08-11T22:31:35.547Z,99.9
2022-08-11T22:33:56.191Z,99.9
2022-08-11T22:35:46.308Z,99.9
2022-08-11T22:37:50.195Z,99.9
2022-08-11T22:40:02.218Z,99.9
2022-08-11T22:41:58.071Z,99.9
2022-08-11T22:44:02.016Z,99.9
2022-08-11T22:46:05.949Z,99.9
2022-08-11T22:48:12.996Z,99.9
2022-08-11T22:50:16.676Z,99.9
2022-08-11T22:55:27.981Z,99.9
2022-08-11T22:57:31.901Z,99.9
2022-08-11T23:03:46.588Z,99.9
2022-08-11T23:05:50.551Z,99.9
2022-08-11T23:09:58.444Z,99.9
2022-08-11T23:12:06.667Z,99.9
2022-08-11T23:14:06.353Z,99.9
2022-08-11T23:18:17.200Z,99.9
2022-08-11T23:20:41.122Z,99.9
2022-08-11T23:22:49.334Z,99.9
2022-08-11T23:28:36.846Z,99.9
2022-08-11T23:32:47.586Z,99.9
2022-08-11T23:35:03.393Z,99.9
2022-08-11T23:36:55.525Z,99.9
2022-08-11T23:38:59.473Z,99.9
2022-08-11T23:43:07.387Z,99.9
2022-08-11T23:47:18.146Z,99.9
2022-08-11T23:51:46.088Z,99.9
2022-08-11T23:53:50.047Z,99.9
2022-08-11T23:55:53.990Z,99.9
